createdAt,value
2022-11-26T00:01:01.442Z,8.45
2022-11-26T00:03:28.067Z,8.85
2022-11-26T00:05:56.684Z,8.82
2022-11-26T00:08:33.850Z,7.97
2022-11-26T00:11:01.467Z,8.10
2022-11-26T00:13:30.424Z,6.95
2022-11-26T00:15:57.350Z,6.60
2022-11-26T00:18:26.581Z,5.88
2022-11-26T00:20:59.716Z,6.60
2022-11-26T00:23:28.359Z,6.40
2022-11-26T00:26:01.301Z,6.65
2022-11-26T00:28:32.191Z,6.78
2022-11-26T00:31:15.218Z,6.20
2022-11-26T00:33:42.180Z,6.15
2022-11-26T00:36:18.603Z,5.28
2022-11-26T00:38:47.370Z,5.80
2022-11-26T00:41:18.113Z,5.40
2022-11-26T00:43:45.693Z,4.72
2022-11-26T00:46:20.436Z,5.68
2022-11-26T00:48:47.153Z,4.78
2022-11-26T00:51:18.908Z,5.18
2022-11-26T00:53:46.957Z,4.20
2022-11-26T00:56:19.627Z,4.65
2022-11-26T00:58:48.015Z,5.07
2022-11-26T01:01:23.957Z,5.00
2022-11-26T01:03:51.141Z,4.88
2022-11-26T01:06:24.093Z,4.90
2022-11-26T01:08:51.190Z,4.95
2022-11-26T01:11:21.349Z,4.25
2022-11-26T01:13:50.054Z,4.53
2022-11-26T01:16:24.295Z,4.68
2022-11-26T01:18:53.550Z,4.35
2022-11-26T01:21:21.561Z,4.45
2022-11-26T01:23:48.296Z,4.57
2022-11-26T01:26:17.838Z,4.70
2022-11-26T01:28:45.168Z,4.78
2022-11-26T01:31:17.634Z,4.93
2022-11-26T01:33:45.133Z,3.80
2022-11-26T01:36:29.486Z,4.40
2022-11-26T01:39:03.207Z,4.35
2022-11-26T01:41:57.093Z,4.50
2022-11-26T01:44:27.171Z,4.28
2022-11-26T01:46:55.000Z,4.60
2022-11-26T01:49:31.566Z,4.30
2022-11-26T01:52:24.778Z,4.70
2022-11-26T01:54:53.360Z,4.20
2022-11-26T01:57:28.219Z,4.40
2022-11-26T02:00:01.197Z,4.10
2022-11-26T02:02:29.714Z,4.97
2022-11-26T02:05:04.974Z,3.90
2022-11-26T02:07:31.890Z,4.00
2022-11-26T02:09:58.566Z,3.40
2022-11-26T02:12:25.385Z,3.50
2022-11-26T02:14:52.090Z,3.92
2022-11-26T02:17:36.338Z,3.35
2022-11-26T02:20:03.017Z,4.00
2022-11-26T02:22:38.500Z,3.40
2022-11-26T02:25:11.024Z,3.58
2022-11-26T02:27:47.387Z,3.33
2022-11-26T02:30:16.460Z,3.53
2022-11-26T02:32:54.580Z,3.70
2022-11-26T02:35:40.629Z,3.75
2022-11-26T02:38:15.401Z,3.97
2022-11-26T02:40:42.059Z,3.97
2022-11-26T02:43:08.717Z,3.80
2022-11-26T02:45:38.862Z,3.78
2022-11-26T02:48:10.740Z,3.30
2022-11-26T02:50:47.163Z,3.65
2022-11-26T02:53:15.662Z,4.22
2022-11-26T02:55:47.057Z,4.32
2022-11-26T02:58:14.231Z,3.97
2022-11-26T03:00:42.641Z,3.35
2022-11-26T03:03:25.915Z,4.45
2022-11-26T03:05:58.965Z,5.45
2022-11-26T03:08:27.291Z,5.82
2022-11-26T03:10:53.923Z,4.90
2022-11-26T03:13:20.563Z,4.85
2022-11-26T03:15:47.212Z,5.97
2022-11-26T03:18:14.354Z,5.55
2022-11-26T03:20:41.066Z,7.28
2022-11-26T03:23:07.696Z,7.65
2022-11-26T03:25:34.770Z,6.63
2022-11-26T03:28:01.735Z,6.45
2022-11-26T03:30:28.678Z,6.65
2022-11-26T03:32:55.376Z,6.40
2022-11-26T03:35:22.052Z,6.90
2022-11-26T03:37:48.755Z,5.55
2022-11-26T03:40:16.725Z,6.25
2022-11-26T03:42:44.129Z,6.25
2022-11-26T03:45:11.938Z,6.15
2022-11-26T03:47:39.165Z,5.20
2022-11-26T03:50:07.356Z,5.03
2022-11-26T03:52:34.227Z,5.45
2022-11-26T03:55:00.880Z,5.32
2022-11-26T03:57:27.755Z,5.90
2022-11-26T03:59:54.380Z,4.25
2022-11-26T04:02:21.067Z,5.80
2022-11-26T04:04:47.762Z,4.85
2022-11-26T04:07:14.462Z,5.15
2022-11-26T04:09:41.154Z,5.05
2022-11-26T04:12:07.994Z,5.00
2022-11-26T04:14:34.601Z,5.03
2022-11-26T04:17:01.869Z,4.90
2022-11-26T04:19:31.349Z,4.65
2022-11-26T04:21:58.365Z,4.50
2022-11-26T04:24:25.397Z,4.55
2022-11-26T04:26:52.533Z,4.28
2022-11-26T04:29:19.931Z,5.07
2022-11-26T04:31:47.066Z,5.90
2022-11-26T04:34:14.127Z,4.55
2022-11-26T04:36:41.150Z,4.60
2022-11-26T04:39:08.309Z,5.28
2022-11-26T04:41:35.396Z,5.32
2022-11-26T04:44:02.518Z,3.90
2022-11-26T04:46:29.584Z,4.05
2022-11-26T04:48:56.622Z,4.45
2022-11-26T04:51:23.640Z,3.75
2022-11-26T04:53:55.488Z,4.00
2022-11-26T04:56:24.043Z,4.20
2022-11-26T04:58:51.479Z,3.53
2022-11-26T05:01:18.574Z,3.70
2022-11-26T05:03:45.592Z,3.85
2022-11-26T05:06:12.634Z,3.67
2022-11-26T05:08:39.659Z,3.50
2022-11-26T05:11:06.826Z,3.15
2022-11-26T05:13:33.827Z,3.50
2022-11-26T05:16:00.833Z,3.88
2022-11-26T05:18:27.860Z,4.05
2022-11-26T05:20:54.863Z,4.20
2022-11-26T05:23:21.966Z,3.80
2022-11-26T05:25:49.017Z,4.47
2022-11-26T05:28:16.134Z,4.57
2022-11-26T05:30:43.267Z,4.85
2022-11-26T05:33:10.742Z,4.05
2022-11-26T05:35:38.601Z,4.70
2022-11-26T05:38:06.988Z,5.93
2022-11-26T05:40:34.089Z,5.63
2022-11-26T05:43:01.167Z,5.72
2022-11-26T05:45:28.252Z,5.07
2022-11-26T05:47:55.330Z,3.92
2022-11-26T05:50:22.381Z,4.82
2022-11-26T05:52:49.498Z,4.80
2022-11-26T05:55:16.907Z,5.20
2022-11-26T05:57:43.919Z,5.22
2022-11-26T06:00:11.225Z,4.85
2022-11-26T06:02:38.511Z,4.22
2022-11-26T06:05:06.097Z,4.50
2022-11-26T06:07:33.269Z,5.45
2022-11-26T06:10:00.365Z,6.40
2022-11-26T06:12:27.397Z,5.75
2022-11-26T06:14:54.438Z,6.25
2022-11-26T06:17:21.527Z,5.40
2022-11-26T06:19:48.666Z,4.22
2022-11-26T06:22:15.720Z,4.85
2022-11-26T06:24:42.740Z,5.38
2022-11-26T06:27:09.807Z,5.15
2022-11-26T06:29:36.875Z,5.13
2022-11-26T06:32:03.938Z,4.18
2022-11-26T06:34:30.976Z,5.10
2022-11-26T06:36:57.977Z,4.22
2022-11-26T06:39:24.973Z,4.85
2022-11-26T06:41:52.021Z,5.20
2022-11-26T06:44:19.117Z,4.20
2022-11-26T06:46:46.137Z,4.55
2022-11-26T06:49:13.202Z,4.82
2022-11-26T06:51:40.303Z,4.50
2022-11-26T06:54:07.327Z,4.72
2022-11-26T06:56:35.625Z,4.63
2022-11-26T06:59:02.742Z,7.30
2022-11-26T07:01:29.823Z,7.40
2022-11-26T07:03:56.991Z,5.13
2022-11-26T07:06:25.357Z,5.47
2022-11-26T07:08:52.984Z,5.20
2022-11-26T07:11:20.579Z,4.72
2022-11-26T07:13:47.669Z,5.15
2022-11-26T07:16:15.023Z,4.88
2022-11-26T07:18:42.245Z,4.60
2022-11-26T07:21:13.076Z,4.78
2022-11-26T07:23:40.549Z,4.00
2022-11-26T07:26:08.609Z,4.03
2022-11-26T07:28:36.072Z,5.35
2022-11-26T07:31:04.530Z,4.65
2022-11-26T07:33:31.616Z,4.60
2022-11-26T07:36:06.255Z,6.07
2022-11-26T07:38:34.660Z,8.98
2022-11-26T07:41:06.048Z,14.52
2022-11-26T07:43:35.086Z,14.75
2022-11-26T07:46:03.187Z,19.20
2022-11-26T07:48:30.635Z,18.45
2022-11-26T07:50:57.949Z,12.13
2022-11-26T07:53:24.999Z,12.20
2022-11-26T07:55:52.012Z,8.15
2022-11-26T07:58:19.045Z,7.95
2022-11-26T08:00:48.747Z,8.60
2022-11-26T08:03:17.783Z,9.70
2022-11-26T08:05:45.629Z,7.63
2022-11-26T08:08:12.901Z,7.70
2022-11-26T08:10:40.030Z,8.20
2022-11-26T08:13:07.055Z,7.20
2022-11-26T08:15:35.426Z,6.15
2022-11-26T08:18:02.556Z,6.97
2022-11-26T08:20:29.647Z,7.63
2022-11-26T08:22:56.684Z,7.38
2022-11-26T08:25:23.730Z,6.88
2022-11-26T08:27:50.805Z,6.65
2022-11-26T08:30:17.928Z,6.97
2022-11-26T08:32:44.965Z,6.03
2022-11-26T08:35:12.521Z,5.78
2022-11-26T08:37:42.333Z,5.93
2022-11-26T08:40:11.213Z,6.53
2022-11-26T08:42:39.814Z,4.40
2022-11-26T08:45:07.105Z,5.00
2022-11-26T08:47:34.144Z,5.80
2022-11-26T08:50:01.191Z,4.55
2022-11-26T08:52:28.510Z,4.57
2022-11-26T08:54:55.638Z,5.03
2022-11-26T08:57:22.656Z,5.15
2022-11-26T08:59:51.853Z,5.53
2022-11-26T09:02:19.209Z,4.93
2022-11-26T09:04:46.281Z,5.38
2022-11-26T09:07:13.445Z,4.75
2022-11-26T09:09:40.770Z,4.15
2022-11-26T09:12:07.890Z,4.53
2022-11-26T09:14:39.747Z,4.28
2022-11-26T09:17:07.488Z,4.57
2022-11-26T09:19:34.683Z,4.00
2022-11-26T09:22:01.776Z,5.05
2022-11-26T09:24:29.837Z,5.28
2022-11-26T09:26:56.918Z,4.93
2022-11-26T09:29:24.357Z,5.10
2022-11-26T09:34:39.260Z,6.05
2022-11-26T09:37:06.588Z,6.30
2022-11-26T09:39:33.764Z,5.90
2022-11-26T09:42:30.407Z,5.90
2022-11-26T09:45:09.052Z,8.15
2022-11-26T09:47:43.504Z,6.55
2022-11-26T09:50:17.115Z,6.80
2022-11-26T09:52:50.180Z,5.82
2022-11-26T09:55:20.371Z,8.38
2022-11-26T09:57:55.210Z,6.97
2022-11-26T10:00:29.927Z,7.15
2022-11-26T10:02:57.724Z,6.53
2022-11-26T10:05:37.958Z,6.85
2022-11-26T10:08:20.034Z,6.88
2022-11-26T10:10:59.909Z,6.18
2022-11-26T10:13:42.409Z,7.60
2022-11-26T10:16:19.710Z,7.30
2022-11-26T10:18:55.056Z,6.25
2022-11-26T10:21:51.696Z,5.47
2022-11-26T10:24:26.107Z,6.57
2022-11-26T10:26:54.002Z,5.87
2022-11-26T10:29:29.053Z,5.78
2022-11-26T10:32:01.132Z,5.10
2022-11-26T10:34:37.396Z,5.27
2022-11-26T10:37:06.419Z,4.80
2022-11-26T10:39:33.508Z,5.00
2022-11-26T10:42:17.675Z,5.10
2022-11-26T10:44:46.716Z,4.80
2022-11-26T10:47:27.249Z,4.00
2022-11-26T10:49:55.523Z,5.47
2022-11-26T10:52:24.001Z,3.90
2022-11-26T10:55:08.226Z,4.70
2022-11-26T10:57:37.396Z,4.40
2022-11-26T11:00:04.869Z,7.13
2022-11-26T11:02:39.216Z,5.70
2022-11-26T11:05:08.532Z,4.20
2022-11-26T11:07:37.096Z,4.00
2022-11-26T11:10:10.294Z,5.70
2022-11-26T11:12:38.121Z,4.40
2022-11-26T11:15:24.051Z,3.50
2022-11-26T11:17:55.578Z,4.10
2022-11-26T11:20:27.780Z,4.17
2022-11-26T11:23:04.073Z,3.80
2022-11-26T11:25:32.713Z,3.10
2022-11-26T11:28:10.516Z,3.40
2022-11-26T11:30:40.330Z,4.20
2022-11-26T11:33:11.695Z,3.40
2022-11-26T11:35:38.791Z,3.43
2022-11-26T11:38:05.970Z,3.90
2022-11-26T11:40:41.318Z,3.17
2022-11-26T11:43:14.274Z,3.33
2022-11-26T11:45:42.386Z,3.30
2022-11-26T11:48:28.416Z,3.77
2022-11-26T11:51:14.134Z,3.80
2022-11-26T11:53:50.554Z,2.83
2022-11-26T11:56:29.985Z,5.33
2022-11-26T11:58:57.024Z,3.87
2022-11-26T12:01:30.151Z,3.63
2022-11-26T12:04:19.576Z,3.80
2022-11-26T12:07:06.043Z,3.27
2022-11-26T12:09:53.330Z,3.90
2022-11-26T12:12:23.486Z,3.13
2022-11-26T12:15:13.792Z,2.80
2022-11-26T12:17:47.047Z,3.63
2022-11-26T12:20:15.731Z,3.73
2022-11-26T12:22:46.541Z,3.00
2022-11-26T12:25:25.909Z,5.87
2022-11-26T12:28:16.187Z,3.27
2022-11-26T12:30:49.268Z,2.93
2022-11-26T12:33:20.579Z,3.23
2022-11-26T12:35:58.757Z,3.03
2022-11-26T12:38:27.705Z,3.20
2022-11-26T12:41:04.064Z,3.10
2022-11-26T12:43:50.021Z,3.03
2022-11-26T12:46:22.898Z,2.57
2022-11-26T12:48:49.923Z,8.97
2022-11-26T12:51:35.844Z,10.43
2022-11-26T12:54:07.487Z,3.17
2022-11-26T12:56:37.776Z,3.50
2022-11-26T12:59:09.924Z,2.50
2022-11-26T13:01:37.042Z,2.97
2022-11-26T13:04:29.865Z,2.80
2022-11-26T13:07:07.371Z,2.40
2022-11-26T13:09:37.915Z,2.60
2022-11-26T13:12:17.487Z,2.63
2022-11-26T13:14:58.902Z,2.33
2022-11-26T13:17:38.357Z,2.60
2022-11-26T13:20:18.154Z,2.07
2022-11-26T13:23:06.374Z,2.43
2022-11-26T13:25:42.593Z,2.57
2022-11-26T13:28:28.492Z,2.47
2022-11-26T13:30:55.496Z,3.10
2022-11-26T13:33:32.595Z,1.97
2022-11-26T13:36:18.334Z,2.30
2022-11-26T13:39:04.525Z,2.63
2022-11-26T13:41:37.456Z,2.10
2022-11-26T13:44:15.251Z,2.53
2022-11-26T13:46:46.848Z,2.20
2022-11-26T13:49:16.948Z,2.20
2022-11-26T13:51:48.189Z,2.67
2022-11-26T13:54:24.942Z,2.77
2022-11-26T13:56:59.246Z,2.60
2022-11-26T13:59:28.741Z,3.10
2022-11-26T14:01:57.410Z,2.50
2022-11-26T14:04:24.484Z,2.90
2022-11-26T14:07:06.676Z,2.77
2022-11-26T14:09:42.886Z,2.50
2022-11-26T14:12:10.476Z,2.70
2022-11-26T14:14:38.861Z,3.00
2022-11-26T14:17:06.078Z,2.30
2022-11-26T14:19:42.495Z,3.30
2022-11-26T14:22:09.522Z,3.00
2022-11-26T14:24:53.999Z,2.63
2022-11-26T14:27:21.089Z,2.40
2022-11-26T14:29:53.379Z,3.10
2022-11-26T14:32:22.964Z,4.10
2022-11-26T14:34:52.592Z,3.87
2022-11-26T14:37:21.903Z,2.70
2022-11-26T14:39:58.398Z,2.67
2022-11-26T14:42:25.474Z,2.53
2022-11-26T14:45:03.228Z,2.23
2022-11-26T14:47:31.562Z,3.73
2022-11-26T14:50:00.706Z,2.53
2022-11-26T14:52:38.602Z,2.43
2022-11-26T14:55:19.787Z,3.73
2022-11-26T14:57:51.829Z,2.40
2022-11-26T15:00:19.254Z,2.60
2022-11-26T15:02:46.642Z,3.03
2022-11-26T15:05:21.436Z,2.93
2022-11-26T15:07:57.783Z,1.90
2022-11-26T15:10:27.642Z,2.20
2022-11-26T15:12:59.757Z,2.23
2022-11-26T15:15:27.053Z,2.40
2022-11-26T15:17:56.288Z,3.80
2022-11-26T15:20:23.998Z,3.20
2022-11-26T15:22:55.381Z,2.70
2022-11-26T15:25:25.824Z,4.28
2022-11-26T15:28:04.382Z,3.90
2022-11-26T15:30:33.524Z,5.65
2022-11-26T15:33:13.161Z,4.18
2022-11-26T15:35:41.137Z,4.30
2022-11-26T15:38:16.231Z,3.88
2022-11-26T15:40:48.257Z,4.07
2022-11-26T15:43:29.066Z,4.00
2022-11-26T15:45:59.110Z,3.53
2022-11-26T15:48:50.348Z,3.58
2022-11-26T15:51:37.392Z,4.45
2022-11-26T15:54:06.769Z,4.13
2022-11-26T15:56:37.736Z,3.50
2022-11-26T15:59:07.746Z,3.30
2022-11-26T16:01:38.016Z,4.40
2022-11-26T16:04:06.430Z,2.10
2022-11-26T16:06:40.846Z,2.35
2022-11-26T16:09:27.886Z,2.90
2022-11-26T16:11:59.821Z,2.70
2022-11-26T16:14:34.305Z,2.78
2022-11-26T16:17:12.125Z,2.85
2022-11-26T16:19:52.116Z,2.95
2022-11-26T16:22:22.892Z,4.30
2022-11-26T16:25:02.582Z,3.05
2022-11-26T16:27:30.569Z,4.65
2022-11-26T16:29:57.901Z,4.50
2022-11-26T16:32:25.009Z,4.82
2022-11-26T16:34:52.147Z,3.55
2022-11-26T16:37:30.045Z,4.60
2022-11-26T16:40:04.714Z,5.25
2022-11-26T16:42:33.187Z,5.97
2022-11-26T16:45:04.098Z,6.25
2022-11-26T16:47:39.429Z,6.85
2022-11-26T16:50:13.360Z,6.38
2022-11-26T16:52:42.010Z,6.90
2022-11-26T16:55:13.524Z,7.30
2022-11-26T16:57:42.308Z,6.13
2022-11-26T17:00:15.565Z,7.65
2022-11-26T17:02:42.968Z,5.57
2022-11-26T17:05:10.489Z,7.57
2022-11-26T17:07:46.551Z,6.43
2022-11-26T17:10:18.353Z,7.22
2022-11-26T17:12:49.706Z,5.95
2022-11-26T17:15:17.213Z,6.93
2022-11-26T17:17:44.557Z,7.47
2022-11-26T17:20:15.894Z,6.75
2022-11-26T17:22:43.077Z,4.10
2022-11-26T17:25:10.225Z,4.28
2022-11-26T17:27:37.893Z,6.45
2022-11-26T17:30:05.945Z,5.35
2022-11-26T17:32:33.261Z,4.95
2022-11-26T17:35:00.284Z,4.90
2022-11-26T17:37:28.689Z,5.43
2022-11-26T17:39:56.129Z,5.70
2022-11-26T17:42:23.883Z,5.40
2022-11-26T17:44:51.898Z,5.30
2022-11-26T17:47:20.772Z,5.05
2022-11-26T17:49:48.256Z,5.57
2022-11-26T17:52:15.789Z,7.25
2022-11-26T17:54:43.489Z,5.72
2022-11-26T17:57:11.371Z,4.50
2022-11-26T17:59:38.783Z,4.28
2022-11-26T18:02:07.667Z,4.80
2022-11-26T18:04:35.259Z,5.15
2022-11-26T18:07:12.959Z,5.85
2022-11-26T18:09:40.863Z,5.55
2022-11-26T18:12:09.533Z,5.25
2022-11-26T18:14:41.365Z,5.50
2022-11-26T18:17:09.854Z,6.25
2022-11-26T18:19:42.081Z,4.05
2022-11-26T18:22:14.873Z,4.70
2022-11-26T18:24:43.190Z,4.57
2022-11-26T18:27:10.346Z,5.90
2022-11-26T18:29:37.726Z,4.65
2022-11-26T18:32:06.096Z,4.47
2022-11-26T18:35:01.698Z,6.53
2022-11-26T18:37:29.189Z,6.15
2022-11-26T18:39:56.260Z,6.78
2022-11-26T18:42:38.996Z,7.60
2022-11-26T18:45:10.051Z,8.68
2022-11-26T18:47:37.649Z,10.68
2022-11-26T18:50:05.103Z,9.45
2022-11-26T18:52:32.292Z,7.65
2022-11-26T18:55:00.016Z,5.82
2022-11-26T18:57:27.254Z,6.20
2022-11-26T18:59:54.352Z,5.18
2022-11-26T19:02:21.425Z,5.18
2022-11-26T19:04:48.821Z,4.13
2022-11-26T19:07:15.880Z,4.88
2022-11-26T19:09:43.402Z,4.28
2022-11-26T19:12:12.582Z,3.58
2022-11-26T19:14:39.664Z,3.80
2022-11-26T19:17:06.981Z,4.22
2022-11-26T19:19:34.210Z,4.07
2022-11-26T19:22:02.108Z,3.83
2022-11-26T19:24:29.932Z,4.53
2022-11-26T19:26:57.434Z,3.80
2022-11-26T19:29:24.567Z,3.50
2022-11-26T19:31:51.697Z,4.60
2022-11-26T19:34:18.768Z,4.47
2022-11-26T19:36:48.377Z,4.70
2022-11-26T19:39:15.991Z,4.40
2022-11-26T19:41:43.160Z,4.50
2022-11-26T19:44:10.267Z,3.92
2022-11-26T19:46:40.862Z,5.57
2022-11-26T19:49:10.335Z,4.53
2022-11-26T19:51:37.355Z,3.72
2022-11-26T19:54:04.947Z,5.55
2022-11-26T19:56:32.100Z,4.35
2022-11-26T19:59:01.862Z,4.80
2022-11-26T20:01:30.673Z,5.82
2022-11-26T20:03:59.294Z,4.95
2022-11-26T20:06:27.247Z,4.82
2022-11-26T20:08:58.123Z,5.28
2022-11-26T20:11:25.648Z,5.00
2022-11-26T20:13:53.002Z,4.18
2022-11-26T20:16:21.744Z,4.20
2022-11-26T20:18:49.050Z,3.90
2022-11-26T20:21:19.635Z,4.30
2022-11-26T20:23:47.129Z,4.97
2022-11-26T20:26:16.061Z,4.90
2022-11-26T20:28:43.576Z,5.78
2022-11-26T20:31:12.394Z,6.10
2022-11-26T20:33:39.513Z,7.00
2022-11-26T20:36:10.292Z,5.18
2022-11-26T20:38:37.470Z,5.57
2022-11-26T20:41:08.754Z,4.32
2022-11-26T20:43:35.814Z,4.30
2022-11-26T20:46:03.931Z,4.45
2022-11-26T20:48:31.589Z,7.60
2022-11-26T20:51:02.995Z,12.32
2022-11-26T20:53:30.146Z,13.02
2022-11-26T20:55:57.350Z,8.73
2022-11-26T20:58:25.301Z,5.53
2022-11-26T21:00:55.080Z,7.70
2022-11-26T21:03:22.643Z,7.20
2022-11-26T21:05:49.757Z,8.68
2022-11-26T21:08:17.312Z,7.15
2022-11-26T21:10:44.435Z,5.22
2022-11-26T21:13:13.579Z,5.22
2022-11-26T21:15:41.533Z,5.18
2022-11-26T21:18:08.717Z,4.95
2022-11-26T21:20:39.656Z,5.55
2022-11-26T21:23:06.786Z,6.35
2022-11-26T21:25:38.046Z,5.25
2022-11-26T21:28:05.935Z,5.70
2022-11-26T21:30:33.423Z,4.10
2022-11-26T21:33:03.264Z,4.60
2022-11-26T21:35:42.162Z,4.28
2022-11-26T21:38:09.266Z,4.40
2022-11-26T21:40:36.320Z,4.63
2022-11-26T21:43:03.446Z,4.05
2022-11-26T21:45:30.594Z,4.18
2022-11-26T21:47:57.673Z,4.85
2022-11-26T21:50:24.700Z,4.10
2022-11-26T21:52:51.829Z,4.13
2022-11-26T21:55:18.998Z,3.90
2022-11-26T21:57:46.047Z,6.10
2022-11-26T22:00:13.423Z,5.82
2022-11-26T22:02:40.552Z,4.88
2022-11-26T22:05:07.815Z,3.63
2022-11-26T22:07:35.111Z,3.72
2022-11-26T22:10:02.483Z,3.67
2022-11-26T22:12:29.780Z,3.13
2022-11-26T22:14:56.797Z,3.22
2022-11-26T22:17:23.816Z,4.72
2022-11-26T22:19:50.894Z,3.97
2022-11-26T22:22:17.901Z,3.58
2022-11-26T22:24:45.441Z,4.10
2022-11-26T22:27:13.557Z,3.50
2022-11-26T22:29:40.917Z,3.65
2022-11-26T22:32:08.197Z,3.10
2022-11-26T22:34:35.946Z,3.55
2022-11-26T22:37:03.097Z,2.67
2022-11-26T22:39:31.701Z,2.60
2022-11-26T22:41:59.329Z,2.75
2022-11-26T22:44:26.386Z,3.10
2022-11-26T22:46:53.402Z,3.15
2022-11-26T22:49:21.941Z,3.15
2022-11-26T22:51:48.946Z,3.25
2022-11-26T22:54:16.798Z,2.90
2022-11-26T22:56:43.873Z,3.42
2022-11-26T22:59:12.519Z,2.72
2022-11-26T23:01:40.690Z,3.25
2022-11-26T23:04:08.732Z,2.88
2022-11-26T23:06:36.500Z,2.90
2022-11-26T23:09:04.458Z,2.85
2022-11-26T23:11:34.369Z,3.10
2022-11-26T23:14:07.180Z,3.45
2022-11-26T23:16:34.975Z,3.67
2022-11-26T23:19:02.404Z,3.88
2022-11-26T23:21:30.831Z,3.58
2022-11-26T23:23:58.170Z,3.67
2022-11-26T23:26:27.862Z,3.80
2022-11-26T23:28:55.929Z,4.00
2022-11-26T23:31:24.568Z,4.18
2022-11-26T23:33:51.902Z,5.05
2022-11-26T23:36:19.032Z,4.10
2022-11-26T23:38:46.397Z,4.30
2022-11-26T23:41:13.417Z,3.58
2022-11-26T23:43:40.759Z,4.63
2022-11-26T23:46:08.998Z,4.05
2022-11-26T23:48:36.147Z,3.85
2022-11-26T23:51:07.002Z,4.25
2022-11-26T23:53:38.681Z,4.00
2022-11-26T23:56:06.748Z,3.60
2022-11-26T23:58:33.823Z,4.82
